Time;durP1;ratioP1;P1;durP2;ratioP2;P2;SDS_P1;SDS_P2;PMS_P1;PMS_P2;Temp;Humidity;BMP_temperature;BMP_pressure;BME280_temperature;BME280_humidity;BME280_pressure;Samples;Min_cycle;Max_cycle;Signal;HPM_P1;HPM_P2
2023/05/08 03:19:07;;;;;;;1.50;0.70;;;20.00;69.50;;;;;;5057174;27;20564;-54
2023/05/08 03:21:40;;;;;;;0.70;0.40;;;21.20;68.10;;;;;;5032122;28;20203;-54
2023/05/08 03:24:11;;;;;;;1.48;0.73;;;21.40;67.50;;;;;;5031295;28;20204;-53
2023/05/08 03:26:43;;;;;;;1.35;0.75;;;21.50;66.80;;;;;;5031629;28;20199;-54
2023/05/08 03:29:16;;;;;;;1.38;0.70;;;21.60;66.40;;;;;;5031573;28;20219;-55
2023/05/08 03:31:48;;;;;;;0.95;0.50;;;21.70;66.10;;;;;;5031198;28;20211;-54
2023/05/08 03:34:23;;;;;;;1.02;0.50;;;21.70;65.70;;;;;;5032013;28;20204;-54
2023/05/08 03:36:54;;;;;;;0.80;0.60;;;21.80;65.50;;;;;;5029938;28;20226;-55
2023/05/08 03:39:26;;;;;;;0.68;0.60;;;21.80;65.20;;;;;;5028314;28;20225;-54
2023/05/08 03:41:58;;;;;;;1.08;0.60;;;21.80;65.00;;;;;;5028045;28;20563;-55
2023/05/08 03:44:29;;;;;;;0.90;0.68;;;21.90;64.90;;;;;;5047905;28;20204;-56
2023/05/08 03:47:01;;;;;;;0.70;0.57;;;21.90;64.80;;;;;;5048450;28;20253;-55
2023/05/08 03:49:35;;;;;;;2.22;0.70;;;22.00;64.60;;;;;;5028503;28;20212;-55
2023/05/08 03:52:06;;;;;;;1.08;0.60;;;22.00;64.50;;;;;;5037857;28;20191;-55
2023/05/08 03:54:37;;;;;;;1.10;0.65;;;22.00;64.30;;;;;;5046592;28;20250;-55
2023/05/08 03:57:08;;;;;;;1.00;0.80;;;22.00;64.20;;;;;;5049505;28;20227;-53
2023/05/08 03:59:48;;;;;;;1.20;0.70;;;22.00;64.20;;;;;;5031353;28;20219;-55
2023/05/08 04:02:26;;;;;;;0.50;0.50;;;22.10;64.10;;;;;;5030152;28;20196;-55
2023/05/08 04:05:07;;;;;;;1.25;0.60;;;22.10;64.00;;;;;;5047403;28;20681;-55
2023/05/08 04:10:17;;;;;;;0.77;0.60;;;22.20;63.90;;;;;;5024202;28;20215;-51
2023/05/08 04:12:56;;;;;;;1.33;0.80;;;22.20;63.80;;;;;;5027401;28;20283;-46
2023/05/08 04:15:31;;;;;;;1.65;0.80;;;22.20;63.70;;;;;;5026583;28;20200;-47
2023/05/08 04:18:06;;;;;;;1.15;0.75;;;22.20;63.70;;;;;;5024302;28;20262;-46
2023/05/08 04:20:42;;;;;;;0.85;0.70;;;22.20;63.60;;;;;;5013787;28;20690;-49
2023/05/08 04:23:15;;;;;;;2.25;0.80;;;22.20;63.50;;;;;;5013700;28;20196;-47
2023/05/08 04:25:48;;;;;;;1.67;0.70;;;22.20;63.40;;;;;;5013649;28;20675;-48
2023/05/08 04:28:20;;;;;;;0.90;0.70;;;22.30;63.40;;;;;;5013305;28;20216;-49
2023/05/08 04:30:51;;;;;;;1.45;0.80;;;22.30;63.40;;;;;;5013386;28;20196;-48
2023/05/08 04:33:21;;;;;;;0.95;0.70;;;22.30;63.30;;;;;;5014168;28;20189;-49
2023/05/08 04:35:54;;;;;;;0.88;0.60;;;22.30;63.20;;;;;;5012566;28;20445;-50
2023/05/08 04:38:24;;;;;;;0.80;0.75;;;22.30;63.20;;;;;;5013869;28;20228;-51
2023/05/08 04:40:55;;;;;;;1.35;0.90;;;22.30;63.20;;;;;;5013046;28;20204;-47
2023/05/08 04:43:26;;;;;;;7.70;2.35;;;22.30;63.10;;;;;;5013175;28;20201;-49
2023/05/08 04:45:56;;;;;;;2.20;1.23;;;22.30;63.40;;;;;;5013503;28;20202;-46
2023/05/08 04:48:27;;;;;;;1.98;1.02;;;22.40;63.50;;;;;;5012858;28;20558;-49
2023/05/08 04:50:59;;;;;;;2.70;1.10;;;22.40;63.40;;;;;;5013348;28;20224;-47
2023/05/08 04:53:30;;;;;;;2.97;1.30;;;22.40;63.30;;;;;;5012653;28;20201;-47
2023/05/08 04:56:01;;;;;;;1.77;0.90;;;22.40;64.00;;;;;;5013730;28;20200;-46
2023/05/08 04:58:31;;;;;;;2.72;1.27;;;22.40;63.20;;;;;;5013574;28;20236;-48
2023/05/08 05:01:05;;;;;;;3.17;1.52;;;22.40;63.20;;;;;;5013002;28;20601;-47
2023/05/08 05:03:36;;;;;;;3.13;1.48;;;22.40;63.10;;;;;;5012699;28;20197;-48
2023/05/08 05:06:09;;;;;;;2.08;1.10;;;22.50;63.10;;;;;;5012361;28;20201;-47
2023/05/08 05:08:39;;;;;;;2.67;1.10;;;22.50;63.00;;;;;;5023751;22;20227;-48
2023/05/08 05:11:10;;;;;;;2.45;1.25;;;22.50;63.70;;;;;;5030003;28;20631;-47
2023/05/08 05:13:41;;;;;;;1.75;1.33;;;22.40;62.90;;;;;;5033242;28;20204;-48
2023/05/08 05:16:12;;;;;;;5.82;1.67;;;22.50;62.90;;;;;;5031437;28;20195;-47
2023/05/08 05:18:42;;;;;;;3.40;1.27;;;22.50;62.80;;;;;;5031692;28;20277;-45
2023/05/08 05:21:15;;;;;;;2.33;1.20;;;22.50;63.60;;;;;;5011954;28;20208;-45
2023/05/08 05:23:46;;;;;;;3.13;1.45;;;22.50;62.80;;;;;;5026627;28;20194;-45
2023/05/08 05:26:16;;;;;;;3.28;1.58;;;22.50;62.80;;;;;;5032162;28;20719;-46
2023/05/08 05:28:47;;;;;;;2.25;1.17;;;22.50;62.80;;;;;;5032369;28;20593;-47
2023/05/08 05:31:18;;;;;;;3.25;1.33;;;22.50;62.70;;;;;;5031771;28;20204;-45
2023/05/08 05:33:48;;;;;;;4.75;2.33;;;22.50;62.60;;;;;;5032195;28;20660;-45
2023/05/08 05:36:21;;;;;;;5.85;2.25;;;22.50;62.60;;;;;;5032176;28;20648;-46
2023/05/08 05:38:51;;;;;;;3.75;1.92;;;22.50;62.50;;;;;;5031921;28;20223;-45
2023/05/08 05:41:23;;;;;;;6.22;2.22;;;22.50;62.50;;;;;;5032192;28;20200;-46
2023/05/08 05:43:53;;;;;;;3.78;1.70;;;22.50;62.50;;;;;;5031739;28;20200;-46
2023/05/08 05:46:29;;;;;;;3.17;1.58;;;22.50;62.40;;;;;;5031732;28;20258;-45
2023/05/08 05:49:00;;;;;;;5.32;2.20;;;22.50;62.40;;;;;;5032158;28;20576;-45
2023/05/08 05:51:33;;;;;;;3.13;1.77;;;22.50;62.40;;;;;;5032369;28;20275;-45
2023/05/08 05:54:03;;;;;;;3.65;1.63;;;22.40;62.20;;;;;;5031655;28;20214;-45
2023/05/08 05:56:34;;;;;;;2.90;1.88;;;22.40;62.20;;;;;;5031828;28;20200;-46
2023/05/08 05:59:05;;;;;;;4.03;1.77;;;22.50;62.30;;;;;;5032190;28;20228;-46
2023/05/08 06:01:35;;;;;;;3.72;1.95;;;22.40;62.30;;;;;;5031564;28;20196;-46
2023/05/08 06:04:06;;;;;;;3.78;1.92;;;22.50;62.30;;;;;;5031824;28;20203;-46
2023/05/08 06:06:39;;;;;;;3.63;1.90;;;22.40;62.20;;;;;;5031224;28;20203;-47
2023/05/08 06:09:09;;;;;;;3.05;1.67;;;22.40;62.20;;;;;;5032309;28;20219;-50
2023/05/08 06:11:40;;;;;;;4.18;2.00;;;22.40;62.20;;;;;;5031317;28;20204;-50
2023/05/08 06:14:11;;;;;;;4.68;2.05;;;22.40;62.20;;;;;;5031634;28;20192;-51
2023/05/08 06:16:43;;;;;;;3.35;1.92;;;22.40;62.10;;;;;;5031901;28;20303;-48
2023/05/08 06:19:14;;;;;;;4.20;1.88;;;22.40;62.10;;;;;;5031050;28;20226;-46
2023/05/08 06:21:46;;;;;;;3.25;1.80;;;22.40;62.00;;;;;;5031282;28;20200;-45
2023/05/08 06:24:17;;;;;;;3.13;1.48;;;22.40;62.00;;;;;;5030482;28;20196;-47
2023/05/08 06:26:48;;;;;;;3.13;1.50;;;22.40;61.90;;;;;;5031230;28;20204;-49
2023/05/08 06:29:21;;;;;;;5.88;1.90;;;22.40;61.90;;;;;;5029944;28;20697;-47
2023/05/08 06:31:51;;;;;;;2.97;2.00;;;22.40;61.80;;;;;;5031196;28;20200;-47
2023/05/08 06:34:22;;;;;;;4.25;1.58;;;22.40;61.80;;;;;;5031336;28;20283;-50
2023/05/08 06:36:55;;;;;;;3.90;2.22;;;22.40;61.80;;;;;;5030837;28;20212;-45
2023/05/08 06:39:25;;;;;;;4.00;1.80;;;22.30;61.70;;;;;;5030058;28;20323;-46
2023/05/08 06:41:56;;;;;;;4.32;1.80;;;22.30;61.60;;;;;;5011620;28;20661;-48
2023/05/08 06:44:26;;;;;;;2.47;1.75;;;22.30;61.60;;;;;;5030511;28;20203;-48
2023/05/08 06:46:57;;;;;;;2.67;1.83;;;22.30;61.70;;;;;;5030702;28;20199;-45
2023/05/08 06:49:28;;;;;;;2.50;1.60;;;22.30;61.70;;;;;;5031557;28;20215;-48
2023/05/08 06:52:00;;;;;;;2.92;1.85;;;22.30;61.60;;;;;;5030884;28;20204;-48
2023/05/08 06:54:31;;;;;;;3.53;1.83;;;22.30;61.70;;;;;;5030785;28;20200;-46
2023/05/08 06:57:01;;;;;;;3.45;1.98;;;22.30;61.60;;;;;;5030345;28;20200;-45
2023/05/08 06:59:32;;;;;;;4.55;1.95;;;22.30;61.60;;;;;;5030150;28;20227;-46
2023/05/08 07:02:03;;;;;;;3.88;2.33;;;22.30;61.60;;;;;;5031035;28;20206;-47
2023/05/08 07:04:33;;;;;;;3.28;2.10;;;22.30;61.60;;;;;;5030411;28;20223;-46
2023/05/08 07:07:06;;;;;;;3.70;2.47;;;22.30;61.50;;;;;;5030243;28;20200;-45
2023/05/08 07:09:37;;;;;;;3.88;2.50;;;22.30;61.50;;;;;;5029430;28;20306;-44
2023/05/08 07:12:08;;;;;;;4.93;2.60;;;22.20;61.40;;;;;;5029639;28;20589;-47
2023/05/08 07:14:38;;;;;;;2.50;2.13;;;22.20;61.30;;;;;;5030735;28;20275;-45
2023/05/08 07:17:09;;;;;;;3.55;2.22;;;22.20;61.30;;;;;;5031061;28;20207;-47
2023/05/08 07:19:40;;;;;;;3.58;2.25;;;22.20;61.30;;;;;;5028941;28;20223;-47
2023/05/08 07:22:12;;;;;;;3.17;2.20;;;22.20;61.20;;;;;;5029624;28;20196;-45
2023/05/08 07:24:43;;;;;;;2.35;2.15;;;22.20;61.30;;;;;;5029299;28;20603;-46
2023/05/08 07:27:14;;;;;;;3.25;2.30;;;22.20;61.30;;;;;;5029961;28;20231;-48
2023/05/08 07:29:44;;;;;;;3.50;2.50;;;22.20;61.30;;;;;;5029696;28;20219;-44
2023/05/08 07:32:19;;;;;;;3.13;2.20;;;22.20;61.30;;;;;;5030496;28;20200;-45
2023/05/08 07:34:49;;;;;;;4.72;2.30;;;22.20;61.30;;;;;;5030789;28;20286;-49
2023/05/08 07:37:22;;;;;;;4.65;2.70;;;22.20;61.30;;;;;;5030498;28;20221;-44
2023/05/08 07:39:52;;;;;;;3.75;2.22;;;22.20;61.30;;;;;;5030763;28;20234;-44
2023/05/08 07:42:23;;;;;;;4.63;2.70;;;22.20;61.30;;;;;;5030744;28;20201;-45
2023/05/08 07:44:54;;;;;;;5.00;2.50;;;22.20;61.20;;;;;;5030770;28;20204;-45
2023/05/08 07:47:24;;;;;;;4.18;2.58;;;22.10;61.10;;;;;;5030882;28;20204;-45
2023/05/08 07:49:56;;;;;;;3.17;2.17;;;22.10;61.10;;;;;;5030489;28;20571;-46
2023/05/08 07:52:28;;;;;;;3.53;2.42;;;22.10;61.90;;;;;;5030420;28;20204;-45
2023/05/08 07:54:59;;;;;;;3.45;2.28;;;22.10;61.20;;;;;;5033116;28;20192;-44
2023/05/08 07:57:30;;;;;;;3.20;2.15;;;22.10;61.10;;;;;;5034102;28;20207;-44
2023/05/08 08:00:04;;;;;;;2.35;2.10;;;22.10;61.10;;;;;;5033744;28;20696;-44
2023/05/08 08:02:35;;;;;;;3.10;2.35;;;22.10;61.10;;;;;;5033989;28;20192;-46
2023/05/08 08:05:06;;;;;;;4.07;2.47;;;22.10;61.10;;;;;;5033728;28;20251;-45
2023/05/08 08:07:38;;;;;;;3.65;2.28;;;22.10;61.10;;;;;;5033313;28;20200;-46
2023/05/08 08:10:10;;;;;;;4.63;2.38;;;22.10;61.10;;;;;;5033458;28;20200;-44
2023/05/08 08:12:41;;;;;;;3.60;2.25;;;22.10;61.10;;;;;;5033750;28;20204;-46
2023/05/08 08:15:14;;;;;;;4.00;2.50;;;22.10;61.10;;;;;;5034252;28;20204;-44
2023/05/08 08:17:45;;;;;;;3.40;2.35;;;22.10;61.10;;;;;;5033805;28;20200;-44
2023/05/08 08:20:18;;;;;;;3.33;2.58;;;22.10;61.10;;;;;;5034123;28;20200;-45
2023/05/08 08:22:51;;;;;;;4.22;2.70;;;22.00;61.00;;;;;;5034166;28;20196;-45
2023/05/08 08:25:22;;;;;;;2.85;2.20;;;22.00;61.00;;;;;;5033516;28;20200;-44
2023/05/08 08:27:52;;;;;;;4.28;2.38;;;22.00;61.00;;;;;;5034159;28;20231;-45
2023/05/08 08:30:23;;;;;;;3.22;2.50;;;22.00;61.00;;;;;;5034047;28;20578;-44
2023/05/08 08:32:53;;;;;;;4.25;2.92;;;22.00;61.80;;;;;;5034178;28;20203;-49
2023/05/08 08:35:28;;;;;;;2.95;2.63;;;22.00;60.90;;;;;;5033994;28;20199;-47
2023/05/08 08:38:00;;;;;;;4.00;2.63;;;22.00;61.00;;;;;;5033581;28;20298;-44
2023/05/08 08:40:31;;;;;;;3.67;2.55;;;22.00;61.00;;;;;;5033019;28;20568;-45
2023/05/08 08:43:02;;;;;;;3.78;2.40;;;22.00;60.90;;;;;;5033584;28;20659;-44
2023/05/08 08:45:33;;;;;;;3.33;2.35;;;22.00;61.00;;;;;;5033751;28;20948;-45
2023/05/08 08:48:05;;;;;;;4.70;2.92;;;22.00;61.00;;;;;;5033443;28;20215;-45
2023/05/08 08:50:37;;;;;;;4.18;2.75;;;21.90;60.90;;;;;;5033322;28;20560;-45
2023/05/08 08:53:13;;;;;;;3.35;2.50;;;22.00;60.90;;;;;;5033429;28;20196;-44
2023/05/08 08:55:48;;;;;;;4.38;2.95;;;21.90;60.90;;;;;;5033510;28;20443;-45
2023/05/08 08:58:23;;;;;;;4.63;2.80;;;21.90;60.90;;;;;;5033523;28;20665;-44
2023/05/08 09:00:55;;;;;;;4.95;2.40;;;21.90;60.90;;;;;;5033603;28;20227;-44
2023/05/08 09:03:26;;;;;;;3.53;2.80;;;21.90;60.90;;;;;;5033505;28;20279;-45
2023/05/08 09:05:57;;;;;;;4.38;2.58;;;21.90;60.90;;;;;;5033250;28;20258;-44
2023/05/08 09:08:29;;;;;;;3.35;2.70;;;21.90;60.90;;;;;;5031594;28;20231;-44
2023/05/08 09:11:03;;;;;;;2.78;2.55;;;21.90;60.90;;;;;;5031743;28;20659;-46
2023/05/08 09:13:33;;;;;;;3.53;2.60;;;21.90;60.90;;;;;;5032505;28;20589;-44
2023/05/08 09:16:04;;;;;;;3.92;2.60;;;21.90;60.90;;;;;;5032935;28;20199;-44
2023/05/08 09:18:35;;;;;;;3.75;2.45;;;21.90;60.90;;;;;;5032685;28;20270;-52
2023/05/08 09:21:07;;;;;;;3.33;1.85;;;21.90;60.80;;;;;;5033333;28;20200;-48
2023/05/08 09:23:55;;;;;;;2.33;1.27;;;21.80;60.20;;;;;;5032835;28;20675;-45
2023/05/08 09:26:34;;;;;;;1.92;1.30;;;21.80;60.00;;;;;;5031937;28;20199;-45
2023/05/08 09:29:15;;;;;;;2.92;1.58;;;21.70;60.00;;;;;;5028148;28;20229;-47
2023/05/08 09:31:47;;;;;;;3.10;1.58;;;21.70;60.10;;;;;;5029277;28;20215;-48
2023/05/08 09:34:27;;;;;;;2.28;1.55;;;21.70;60.10;;;;;;5032561;28;20259;-46
2023/05/08 09:36:57;;;;;;;3.13;1.75;;;21.60;60.20;;;;;;5031597;28;20188;-46
2023/05/08 09:39:30;;;;;;;2.42;1.67;;;21.60;60.20;;;;;;5032144;28;20236;-45
2023/05/08 09:42:01;;;;;;;3.13;1.90;;;21.70;60.30;;;;;;5031400;28;20196;-45
2023/05/08 09:44:44;;;;;;;2.55;1.92;;;21.60;60.30;;;;;;5012627;28;20675;-45
2023/05/08 09:47:15;;;;;;;1.95;1.65;;;21.60;60.30;;;;;;5029051;28;20235;-45
2023/05/08 09:50:00;;;;;;;3.45;1.85;;;21.60;60.30;;;;;;5031846;28;20981;-44
2023/05/08 09:52:31;;;;;;;4.82;1.75;;;21.50;60.20;;;;;;5032349;28;20196;-46
2023/05/08 09:55:05;;;;;;;5.80;1.98;;;21.50;60.20;;;;;;5031810;28;20203;-45
2023/05/08 09:57:38;;;;;;;2.65;2.15;;;21.60;60.30;;;;;;5032039;28;20275;-45
2023/05/08 10:00:11;;;;;;;3.97;2.08;;;21.60;60.30;;;;;;5031147;28;20251;-45
2023/05/08 10:02:43;;;;;;;2.63;1.77;;;21.60;60.30;;;;;;5031785;28;20200;-45
2023/05/08 10:05:28;;;;;;;3.03;1.60;;;21.60;60.40;;;;;;5031677;28;20196;-48
2023/05/08 10:07:59;;;;;;;3.80;1.70;;;21.60;60.30;;;;;;5031140;28;20228;-45
2023/05/08 10:10:32;;;;;;;2.08;1.67;;;21.60;60.30;;;;;;5031474;28;20663;-46
2023/05/08 10:13:03;;;;;;;2.78;1.98;;;21.60;60.40;;;;;;5031589;28;20200;-45
2023/05/08 10:15:34;;;;;;;3.13;1.73;;;21.60;60.40;;;;;;5031784;28;20196;-45
2023/05/08 10:18:07;;;;;;;2.25;1.67;;;21.60;60.40;;;;;;5030672;28;20706;-45
2023/05/08 10:20:40;;;;;;;2.28;1.75;;;21.60;60.40;;;;;;5031373;28;20683;-44
2023/05/08 10:23:18;;;;;;;2.05;1.88;;;21.60;60.40;;;;;;5030838;28;20200;-46
2023/05/08 10:25:53;;;;;;;2.35;1.90;;;21.60;60.40;;;;;;5031395;28;20228;-48
2023/05/08 10:28:30;;;;;;;3.83;1.90;;;21.60;60.40;;;;;;5031229;28;20901;-48
2023/05/08 10:31:04;;;;;;;2.00;1.67;;;21.60;60.30;;;;;;5031340;28;20563;-44
2023/05/08 10:33:39;;;;;;;2.25;1.48;;;21.60;60.30;;;;;;5030847;28;20196;-45
2023/05/08 10:36:12;;;;;;;3.35;1.75;;;21.50;60.20;;;;;;5029638;28;20653;-45
2023/05/08 10:38:43;;;;;;;2.58;1.83;;;21.60;60.30;;;;;;5030957;28;20220;-46
2023/05/08 10:41:17;;;;;;;2.28;1.70;;;21.50;60.20;;;;;;5031531;28;20188;-49
2023/05/08 10:43:48;;;;;;;2.45;1.85;;;21.50;60.20;;;;;;5031650;28;20203;-47
2023/05/08 10:46:23;;;;;;;2.83;1.80;;;21.50;60.30;;;;;;5030581;28;20188;-47
2023/05/08 10:49:02;;;;;;;3.25;1.60;;;21.50;60.20;;;;;;5031327;28;20234;-47
2023/05/08 10:51:43;;;;;;;2.80;1.67;;;21.50;60.20;;;;;;5030424;28;20195;-46
2023/05/08 10:54:21;;;;;;;2.40;1.60;;;21.50;60.20;;;;;;5030360;28;20195;-46
2023/05/08 10:57:04;;;;;;;3.08;1.80;;;21.50;60.30;;;;;;5030029;28;20445;-47
2023/05/08 10:59:38;;;;;;;2.92;1.75;;;21.50;60.30;;;;;;5031072;28;20223;-46
2023/05/08 11:02:09;;;;;;;2.40;1.80;;;21.50;60.30;;;;;;5030090;28;20282;-46
2023/05/08 11:04:40;;;;;;;4.20;1.88;;;21.50;60.30;;;;;;5030723;28;20602;-46
2023/05/08 11:07:10;;;;;;;4.85;2.28;;;21.50;60.20;;;;;;5030325;28;20718;-48
2023/05/08 11:09:50;;;;;;;2.78;1.90;;;21.50;60.20;;;;;;5030026;28;20687;-48
2023/05/08 11:12:28;;;;;;;2.28;1.95;;;21.50;60.20;;;;;;5030638;28;20200;-46
2023/05/08 11:15:03;;;;;;;3.30;1.92;;;21.50;60.20;;;;;;5031178;28;20188;-46
2023/05/08 11:17:33;;;;;;;2.80;1.70;;;21.50;60.20;;;;;;5024738;28;20187;-45
2023/05/08 11:20:06;;;;;;;2.65;1.83;;;21.50;60.20;;;;;;5030549;28;20216;-44
2023/05/08 11:22:37;;;;;;;3.70;1.92;;;21.50;60.20;;;;;;5030331;28;20203;-46
2023/05/08 11:25:10;;;;;;;3.53;2.22;;;21.50;60.20;;;;;;5029808;28;20196;-48
2023/05/08 11:28:07;;;;;;;2.28;1.85;;;21.50;60.20;;;;;;5029817;28;20254;-46
2023/05/08 11:30:40;;;;;;;2.08;1.73;;;21.50;60.20;;;;;;5034233;28;20196;-48
2023/05/08 11:33:17;;;;;;;3.17;2.03;;;21.50;60.20;;;;;;5034963;28;20192;-45
2023/05/08 11:35:50;;;;;;;2.35;1.63;;;21.50;60.20;;;;;;5033569;28;20200;-46
2023/05/08 11:38:32;;;;;;;3.88;1.75;;;21.50;60.30;;;;;;5033494;28;20216;-47
2023/05/08 11:41:08;;;;;;;2.20;1.65;;;21.50;60.30;;;;;;5034261;28;20231;-47
2023/05/08 11:44:20;;;;;;;2.78;2.03;;;21.50;60.30;;;;;;5034262;28;20222;-46
2023/05/08 11:46:54;;;;;;;1.88;1.50;;;21.50;60.30;;;;;;5034411;28;20204;-46
2023/05/08 11:49:27;;;;;;;2.53;1.90;;;21.50;60.20;;;;;;5034180;28;20218;-46
2023/05/08 11:52:02;;;;;;;3.15;2.10;;;21.50;60.20;;;;;;5034262;28;20310;-45
2023/05/08 11:54:33;;;;;;;2.83;1.75;;;21.50;60.20;;;;;;5033777;28;20196;-46
2023/05/08 11:57:04;;;;;;;2.95;1.90;;;21.40;60.20;;;;;;5032560;28;20795;-46
2023/05/08 11:59:42;;;;;;;2.80;1.98;;;21.40;60.20;;;;;;5033223;28;20223;-45
2023/05/08 12:02:13;;;;;;;2.35;1.58;;;21.40;60.10;;;;;;5034124;28;20195;-46
2023/05/08 12:04:47;;;;;;;3.70;1.95;;;21.50;60.20;;;;;;5034292;28;20235;-45
2023/05/08 12:07:19;;;;;;;3.38;1.88;;;21.40;60.20;;;;;;5034130;28;20200;-47
2023/05/08 12:09:50;;;;;;;2.97;2.10;;;21.40;60.20;;;;;;5034158;28;20310;-46
2023/05/08 12:12:21;;;;;;;3.28;2.03;;;21.40;60.10;;;;;;5034023;28;20195;-46
2023/05/08 12:14:54;;;;;;;2.72;2.00;;;21.40;60.20;;;;;;5033747;28;20196;-47
2023/05/08 12:17:25;;;;;;;2.80;2.10;;;21.40;60.20;;;;;;5033192;28;20242;-48
2023/05/08 12:20:02;;;;;;;2.75;1.55;;;21.40;60.10;;;;;;5032628;28;20224;-46
2023/05/08 12:22:33;;;;;;;2.63;1.67;;;21.40;60.10;;;;;;5031977;28;20203;-48
2023/05/08 12:25:06;;;;;;;3.60;2.13;;;21.40;60.20;;;;;;5030780;28;20196;-48
2023/05/08 12:27:38;;;;;;;2.85;1.98;;;21.40;60.90;;;;;;5032910;28;20208;-49
2023/05/08 12:30:15;;;;;;;2.97;1.98;;;21.40;60.20;;;;;;5032722;28;20275;-46
2023/05/08 12:32:46;;;;;;;3.30;1.80;;;21.40;60.20;;;;;;5030493;28;20184;-47
2023/05/08 12:35:17;;;;;;;2.65;1.80;;;21.40;60.10;;;;;;5032950;28;20196;-46
2023/05/08 12:37:48;;;;;;;3.50;2.00;;;21.40;60.10;;;;;;5032875;28;20196;-45
2023/05/08 12:40:29;;;;;;;4.03;1.98;;;21.40;60.00;;;;;;5031945;28;20817;-48
2023/05/08 12:43:02;;;;;;;4.30;2.28;;;21.40;60.10;;;;;;5032703;28;20188;-46
2023/05/08 12:45:38;;;;;;;4.60;2.63;;;21.40;60.10;;;;;;5032129;28;20278;-46
2023/05/08 12:48:09;;;;;;;2.08;1.75;;;21.40;60.10;;;;;;5030416;28;20279;-46
2023/05/08 12:50:41;;;;;;;2.35;1.85;;;21.40;60.10;;;;;;5032493;28;20191;-46
2023/05/08 12:53:15;;;;;;;2.22;1.77;;;21.40;60.10;;;;;;5032624;28;20203;-46
2023/05/08 12:55:54;;;;;;;3.80;1.90;;;21.40;60.10;;;;;;5030462;28;20216;-46
2023/05/08 12:58:27;;;;;;;2.38;1.70;;;21.40;60.10;;;;;;5030090;28;20258;-46
2023/05/08 13:01:08;;;;;;;2.70;1.85;;;21.40;60.10;;;;;;5032279;28;20710;-46
2023/05/08 13:03:40;;;;;;;3.03;1.80;;;21.40;60.10;;;;;;5032265;28;20188;-46
2023/05/08 13:06:22;;;;;;;2.60;1.80;;;21.40;60.10;;;;;;5032409;28;20184;-47
2023/05/08 13:08:56;;;;;;;3.15;1.75;;;21.40;60.10;;;;;;5030911;28;20223;-46
2023/05/08 13:11:33;;;;;;;2.40;1.70;;;21.40;60.10;;;;;;5030223;28;20231;-45
2023/05/08 13:14:11;;;;;;;2.20;1.70;;;21.40;60.10;;;;;;5033249;28;20306;-46
2023/05/08 13:16:50;;;;;;;2.75;1.90;;;21.40;60.00;;;;;;5033010;28;20639;-45
2023/05/08 13:19:21;;;;;;;2.20;1.67;;;21.40;60.00;;;;;;5032314;28;20595;-45
2023/05/08 13:21:51;;;;;;;2.47;1.90;;;21.40;60.00;;;;;;5032611;28;20200;-45
2023/05/08 13:24:22;;;;;;;2.33;1.50;;;21.40;60.00;;;;;;5032727;28;20563;-46
2023/05/08 13:26:53;;;;;;;2.40;1.80;;;21.40;60.00;;;;;;5032211;28;20185;-45
2023/05/08 13:29:23;;;;;;;2.20;1.70;;;21.40;60.00;;;;;;5032573;28;20297;-46
2023/05/08 13:31:56;;;;;;;4.07;1.95;;;21.40;60.00;;;;;;5032661;28;20196;-45
2023/05/08 13:34:26;;;;;;;2.47;1.77;;;21.40;60.00;;;;;;5032399;28;20223;-46
2023/05/08 13:36:57;;;;;;;2.53;1.80;;;21.40;60.00;;;;;;5032097;28;20191;-45
2023/05/08 13:39:30;;;;;;;2.63;1.77;;;21.40;60.00;;;;;;5032529;28;20216;-46
2023/05/08 13:42:01;;;;;;;2.15;1.70;;;21.40;60.10;;;;;;5032529;28;20223;-47
2023/05/08 13:44:32;;;;;;;1.75;1.60;;;21.40;60.00;;;;;;5012654;28;20216;-47
2023/05/08 13:47:04;;;;;;;3.03;1.80;;;21.40;60.10;;;;;;5012684;28;20251;-46
2023/05/08 13:49:35;;;;;;;3.38;1.70;;;21.40;60.00;;;;;;5012654;28;20584;-47
2023/05/08 13:52:06;;;;;;;2.60;1.80;;;21.40;60.10;;;;;;5011841;28;20565;-48
2023/05/08 13:54:36;;;;;;;2.72;2.00;;;21.40;60.00;;;;;;5012730;28;20197;-50
2023/05/08 13:57:07;;;;;;;2.38;1.58;;;21.40;60.00;;;;;;5012644;28;20208;-46
2023/05/08 13:59:39;;;;;;;2.00;1.60;;;21.40;60.00;;;;;;5012232;28;20218;-46
2023/05/08 14:02:11;;;;;;;1.70;1.58;;;21.40;60.00;;;;;;5012672;28;20205;-48
2023/05/08 14:04:42;;;;;;;2.55;1.60;;;21.40;60.00;;;;;;5012579;28;20201;-48
2023/05/08 14:07:13;;;;;;;2.47;1.58;;;21.40;60.00;;;;;;5012474;28;20196;-46
2023/05/08 14:09:44;;;;;;;2.78;1.75;;;21.40;60.00;;;;;;5012225;28;20244;-48
2023/05/08 14:12:14;;;;;;;2.35;1.63;;;21.30;59.90;;;;;;5013424;28;20197;-46
2023/05/08 14:14:45;;;;;;;1.98;1.67;;;21.40;60.00;;;;;;5032618;28;20648;-47
2023/05/08 14:17:18;;;;;;;2.28;1.60;;;21.40;60.00;;;;;;5032282;28;20196;-48
2023/05/08 14:19:48;;;;;;;2.55;1.73;;;21.40;60.00;;;;;;5032100;28;20695;-47
2023/05/08 14:22:19;;;;;;;2.83;1.55;;;21.40;60.00;;;;;;5032170;28;20616;-45
2023/05/08 14:24:50;;;;;;;2.92;1.98;;;21.30;59.90;;;;;;5031890;28;20195;-45
2023/05/08 14:30:43;;;;;;;2.15;1.63;;;21.30;59.90;;;;;;5031599;28;20298;-47
2023/05/08 14:33:15;;;;;;;1.73;1.45;;;21.40;59.90;;;;;;5031540;28;20211;-46
2023/05/08 14:35:47;;;;;;;2.00;1.50;;;21.30;59.90;;;;;;5031289;28;20196;-46
2023/05/08 14:38:17;;;;;;;2.55;1.65;;;21.30;59.90;;;;;;5031173;28;20219;-47
2023/05/08 14:40:50;;;;;;;3.03;1.63;;;21.30;59.90;;;;;;5031351;28;20228;-46
2023/05/08 14:43:21;;;;;;;2.13;1.70;;;21.30;59.90;;;;;;5031183;28;20200;-47
2023/05/08 14:45:52;;;;;;;2.00;1.30;;;21.30;59.90;;;;;;5031715;28;20204;-45
2023/05/08 14:48:26;;;;;;;1.98;1.60;;;21.30;59.90;;;;;;5031653;28;20223;-47
2023/05/08 14:50:57;;;;;;;2.20;1.50;;;21.30;59.90;;;;;;5031339;28;20703;-45
2023/05/08 14:53:28;;;;;;;2.40;1.60;;;21.30;59.90;;;;;;5031452;28;20227;-46
2023/05/08 14:55:59;;;;;;;1.73;1.30;;;21.30;59.90;;;;;;5031677;28;20199;-44
2023/05/08 14:58:30;;;;;;;1.70;1.60;;;21.30;59.90;;;;;;5031838;28;20216;-45
2023/05/08 15:01:00;;;;;;;2.25;1.52;;;21.30;59.90;;;;;;5031557;28;20718;-46
2023/05/08 15:03:33;;;;;;;2.05;1.52;;;21.30;59.90;;;;;;5031303;28;20668;-45
2023/05/08 15:06:04;;;;;;;2.03;1.48;;;21.30;59.90;;;;;;5031234;28;20223;-47
2023/05/08 15:08:34;;;;;;;2.10;1.55;;;21.30;59.90;;;;;;5030857;28;20227;-46
2023/05/08 15:11:05;;;;;;;1.92;1.45;;;21.30;60.70;;;;;;5031493;28;20196;-45
2023/05/08 15:13:36;;;;;;;1.75;1.40;;;21.30;60.00;;;;;;5031114;28;20566;-45
2023/05/08 15:16:07;;;;;;;1.85;1.45;;;21.30;59.90;;;;;;5031518;28;20196;-47
2023/05/08 15:18:39;;;;;;;2.08;1.50;;;21.30;59.90;;;;;;5031124;28;20211;-45
2023/05/08 15:21:10;;;;;;;1.67;1.30;;;21.30;59.90;;;;;;5030340;28;20255;-46
2023/05/08 15:23:41;;;;;;;1.80;1.45;;;21.30;59.90;;;;;;5031026;28;20730;-46
2023/05/08 15:26:12;;;;;;;1.75;1.30;;;21.30;59.90;;;;;;5031005;28;20192;-47
2023/05/08 15:28:42;;;;;;;2.28;1.50;;;21.30;59.80;;;;;;5030551;28;20216;-47
2023/05/08 15:31:13;;;;;;;1.65;1.40;;;21.20;59.80;;;;;;5031159;28;20591;-46
2023/05/08 15:33:46;;;;;;;2.05;1.30;;;21.30;59.80;;;;;;5031074;28;20196;-45
2023/05/08 15:36:17;;;;;;;1.83;1.40;;;21.20;59.80;;;;;;5030654;28;20200;-45
2023/05/08 15:38:48;;;;;;;1.45;1.23;;;21.20;59.80;;;;;;5029622;28;20784;-46
2023/05/08 15:41:19;;;;;;;1.58;1.30;;;21.20;59.80;;;;;;5031068;28;20267;-45
2023/05/08 15:43:52;;;;;;;1.83;1.38;;;21.30;59.80;;;;;;5030866;28;20215;-45
2023/05/08 15:46:23;;;;;;;1.42;1.30;;;21.20;59.80;;;;;;5030993;28;20211;-45
2023/05/08 15:48:56;;;;;;;2.10;1.58;;;21.20;59.90;;;;;;5031004;28;20578;-45
2023/05/08 15:51:26;;;;;;;1.80;1.33;;;21.30;59.90;;;;;;5030580;28;20202;-45
2023/05/08 15:53:57;;;;;;;2.22;1.42;;;21.20;59.80;;;;;;5030866;28;20207;-45
2023/05/08 15:56:28;;;;;;;2.00;1.40;;;21.20;59.80;;;;;;5031205;28;20215;-47
2023/05/08 15:58:58;;;;;;;3.00;1.70;;;21.20;59.80;;;;;;5031027;28;20228;-46
2023/05/08 16:01:29;;;;;;;1.83;1.38;;;21.20;59.80;;;;;;5031003;28;20644;-45
2023/05/08 16:04:02;;;;;;;1.40;1.30;;;21.20;59.80;;;;;;5030911;28;20193;-46
2023/05/08 16:06:33;;;;;;;1.50;1.40;;;21.20;59.80;;;;;;5030687;28;20208;-45
2023/05/08 16:09:03;;;;;;;2.88;1.40;;;21.20;59.80;;;;;;5030407;28;20227;-45
2023/05/08 16:11:34;;;;;;;1.60;1.10;;;21.20;59.80;;;;;;5030752;28;20207;-47
2023/05/08 16:14:05;;;;;;;2.25;1.40;;;21.20;59.80;;;;;;5030783;28;20263;-46
2023/05/08 16:16:36;;;;;;;1.65;1.30;;;21.20;59.80;;;;;;5031084;22;20232;-59
2023/05/08 16:19:08;;;;;;;1.33;1.23;;;21.20;59.80;;;;;;5013650;28;20232;-59
2023/05/08 16:21:39;;;;;;;1.92;1.63;;;21.20;59.80;;;;;;5014232;28;20233;-60
2023/05/08 16:24:10;;;;;;;1.98;1.30;;;21.20;59.80;;;;;;5014180;28;20200;-60
2023/05/08 16:26:40;;;;;;;1.88;1.40;;;21.20;59.70;;;;;;5014048;28;20197;-59
2023/05/08 16:29:11;;;;;;;1.55;1.30;;;21.20;59.70;;;;;;5014169;28;20254;-59
2023/05/08 16:31:42;;;;;;;2.08;1.48;;;21.20;59.70;;;;;;5014530;28;20200;-60
2023/05/08 16:34:14;;;;;;;1.55;1.30;;;21.20;59.80;;;;;;5014400;28;20204;-60
2023/05/08 16:36:45;;;;;;;1.70;1.02;;;21.20;59.80;;;;;;5014179;28;20679;-58
2023/05/08 16:39:15;;;;;;;1.73;1.38;;;21.20;59.80;;;;;;5013828;28;20220;-59